createdAt,value
2024-01-19T00:01:03.746Z,-0.50
2024-01-19T00:03:30.596Z,-0.50
2024-01-19T00:05:57.505Z,-0.50
2024-01-19T00:08:24.433Z,-0.60
2024-01-19T00:10:51.349Z,-0.60
2024-01-19T00:13:18.176Z,-0.60
2024-01-19T00:15:44.945Z,-0.60
2024-01-19T00:18:12.536Z,-0.60
2024-01-19T00:20:39.577Z,-0.70
2024-01-19T00:23:06.551Z,-0.70
2024-01-19T00:25:33.376Z,-0.70
2024-01-19T00:28:00.159Z,-0.70
2024-01-19T00:30:26.920Z,-0.70
2024-01-19T00:32:53.802Z,-0.70
2024-01-19T00:35:22.025Z,-0.70
2024-01-19T00:37:49.326Z,-0.70
2024-01-19T00:40:16.592Z,-0.80
2024-01-19T00:42:44.451Z,-0.70
2024-01-19T00:45:11.975Z,-0.70
2024-01-19T00:47:39.607Z,-0.70
2024-01-19T00:50:09.240Z,-0.80
2024-01-19T00:52:37.102Z,-0.80
2024-01-19T00:55:04.217Z,-0.80
2024-01-19T00:57:31.008Z,-0.80
2024-01-19T00:59:58.138Z,-0.80
2024-01-19T01:02:28.490Z,-0.80
2024-01-19T01:04:59.446Z,-0.80
2024-01-19T01:07:26.305Z,-0.80
2024-01-19T01:09:53.086Z,-0.80
2024-01-19T01:12:19.890Z,-0.80
2024-01-19T01:14:48.399Z,-0.70
2024-01-19T01:17:16.341Z,-0.70
2024-01-19T01:19:43.353Z,-0.70
2024-01-19T01:22:13.825Z,-0.70
2024-01-19T01:24:40.775Z,-0.70
2024-01-19T01:27:07.577Z,-0.70
2024-01-19T01:29:34.438Z,-0.70
2024-01-19T01:32:01.212Z,-0.70
2024-01-19T01:34:28.132Z,-0.80
2024-01-19T01:36:55.020Z,-0.70
2024-01-19T01:39:21.811Z,-0.70
2024-01-19T01:41:49.988Z,-0.80
2024-01-19T01:44:17.158Z,-0.80
2024-01-19T01:46:47.810Z,-0.80
2024-01-19T01:49:16.760Z,-0.70
2024-01-19T01:51:44.065Z,-0.80
2024-01-19T01:54:10.972Z,-0.80
2024-01-19T01:56:37.888Z,-0.80
2024-01-19T01:59:05.085Z,-0.80
2024-01-19T02:01:31.959Z,-0.80
2024-01-19T02:04:00.346Z,-0.80
2024-01-19T02:06:29.155Z,-0.80
2024-01-19T02:08:56.670Z,-0.80
2024-01-19T02:11:23.773Z,-0.80
2024-01-19T02:13:50.622Z,-0.70
2024-01-19T02:16:17.389Z,-0.70
2024-01-19T02:18:44.410Z,-0.70
2024-01-19T02:21:11.384Z,-0.80
2024-01-19T02:23:56.401Z,-0.80
2024-01-19T02:26:24.114Z,-0.90
2024-01-19T02:28:52.885Z,-0.90
2024-01-19T02:31:19.697Z,-0.90
2024-01-19T02:33:46.685Z,-0.90
2024-01-19T02:36:13.649Z,-1.00
2024-01-19T02:38:41.179Z,-1.00
2024-01-19T02:41:08.097Z,-1.00
2024-01-19T02:43:35.336Z,-1.00
2024-01-19T02:46:02.760Z,-0.90
2024-01-19T02:48:29.716Z,-0.90
2024-01-19T02:50:56.650Z,-1.00
2024-01-19T02:53:23.540Z,-0.90
2024-01-19T02:55:50.444Z,-0.90
2024-01-19T02:58:17.282Z,-1.00
2024-01-19T03:00:45.270Z,-1.00
2024-01-19T03:03:12.226Z,-0.90
2024-01-19T03:05:39.350Z,-0.90
2024-01-19T03:08:06.309Z,-0.90
2024-01-19T03:10:33.056Z,-0.90
2024-01-19T03:13:00.214Z,-1.00
2024-01-19T03:15:27.073Z,-0.90
2024-01-19T03:17:53.897Z,-0.90
2024-01-19T03:20:21.154Z,-0.90
2024-01-19T03:22:47.930Z,-0.90
2024-01-19T03:25:14.829Z,-0.90
2024-01-19T03:27:41.663Z,-0.90
2024-01-19T03:30:08.710Z,-0.90
2024-01-19T03:32:35.705Z,-0.90
2024-01-19T03:35:02.534Z,-0.90
2024-01-19T03:37:29.401Z,-0.80
2024-01-19T03:39:56.204Z,-0.90
2024-01-19T03:42:23.052Z,-0.90
2024-01-19T03:44:50.017Z,-0.90
2024-01-19T03:47:16.954Z,-1.00
2024-01-19T03:49:43.858Z,-1.10
2024-01-19T03:52:11.601Z,-1.10
2024-01-19T03:54:38.836Z,-1.00
2024-01-19T03:57:07.483Z,-1.00
2024-01-19T03:59:34.885Z,-0.90
2024-01-19T04:02:02.307Z,-1.00
2024-01-19T04:04:29.492Z,-1.00
2024-01-19T04:06:57.157Z,-1.00
2024-01-19T04:09:24.420Z,-1.00
2024-01-19T04:11:51.513Z,-0.90
2024-01-19T04:14:18.457Z,-0.90
2024-01-19T04:16:45.388Z,-0.90
2024-01-19T04:19:12.429Z,-0.80
2024-01-19T04:21:39.359Z,-0.80
2024-01-19T04:24:09.241Z,-0.80
2024-01-19T04:26:38.146Z,-0.80
2024-01-19T04:29:05.091Z,-0.90
2024-01-19T04:31:31.997Z,-0.80
2024-01-19T04:33:58.949Z,-0.80
2024-01-19T04:36:25.790Z,-0.70
2024-01-19T04:38:53.642Z,-0.70
2024-01-19T04:41:20.868Z,-0.70
2024-01-19T04:43:48.062Z,-0.70
2024-01-19T04:46:15.090Z,-0.80
2024-01-19T04:48:42.232Z,-0.80
2024-01-19T04:51:09.141Z,-0.90
2024-01-19T04:53:36.026Z,-0.90
2024-01-19T04:56:06.764Z,-0.90
2024-01-19T04:58:39.153Z,-0.90
2024-01-19T05:01:06.098Z,-0.90
2024-01-19T05:03:32.893Z,-1.00
2024-01-19T05:06:00.257Z,-1.00
2024-01-19T05:08:27.334Z,-1.00
2024-01-19T05:10:56.936Z,-1.00
2024-01-19T05:13:23.796Z,-1.10
2024-01-19T05:15:50.998Z,-1.10
2024-01-19T05:18:17.929Z,-1.10
2024-01-19T05:20:44.874Z,-1.10
2024-01-19T05:23:11.641Z,-1.20
2024-01-19T05:25:40.692Z,-1.10
2024-01-19T05:28:08.259Z,-1.10
2024-01-19T05:30:35.234Z,-1.10
2024-01-19T05:33:02.579Z,-1.10
2024-01-19T05:35:29.540Z,-1.00
2024-01-19T05:37:56.376Z,-1.00
2024-01-19T05:40:23.415Z,-1.00
2024-01-19T05:42:50.186Z,-1.00
2024-01-19T05:45:17.228Z,-1.00
2024-01-19T05:47:44.426Z,-1.00
2024-01-19T05:50:11.674Z,-1.00
2024-01-19T05:52:38.526Z,-1.00
2024-01-19T05:55:06.484Z,-1.10
2024-01-19T05:57:33.323Z,-1.10
2024-01-19T06:00:00.225Z,-1.00
2024-01-19T06:02:27.337Z,-1.00
2024-01-19T06:04:54.199Z,-1.00
2024-01-19T06:07:20.975Z,-1.00
2024-01-19T06:09:47.793Z,-1.00
2024-01-19T06:12:15.289Z,-1.00
2024-01-19T06:14:42.124Z,-1.00
2024-01-19T06:17:12.488Z,-1.10
2024-01-19T06:19:41.897Z,-1.10
2024-01-19T06:22:08.782Z,-1.10
2024-01-19T06:24:37.445Z,-1.10
2024-01-19T06:27:05.123Z,-1.10
2024-01-19T06:29:32.102Z,-1.10
2024-01-19T06:31:59.122Z,-1.10
2024-01-19T06:34:30.154Z,-1.10
2024-01-19T06:36:56.928Z,-1.10
2024-01-19T06:39:24.634Z,-1.00
2024-01-19T06:41:51.599Z,-1.00
2024-01-19T06:44:18.512Z,-1.00
2024-01-19T06:46:48.345Z,-0.90
2024-01-19T06:49:15.922Z,-0.90
2024-01-19T06:51:43.060Z,-0.90
2024-01-19T06:54:10.304Z,-0.90
2024-01-19T06:56:37.523Z,-0.90
2024-01-19T06:59:04.527Z,-0.80
2024-01-19T07:01:31.470Z,-0.80
2024-01-19T07:03:58.728Z,-0.80
2024-01-19T07:06:26.104Z,-0.80
2024-01-19T07:08:53.098Z,-0.70
2024-01-19T07:11:21.609Z,-0.70
2024-01-19T07:13:48.702Z,-0.60
2024-01-19T07:16:16.241Z,-0.70
2024-01-19T07:18:43.373Z,-0.70
2024-01-19T07:21:10.316Z,-0.70
2024-01-19T07:23:37.480Z,-0.70
2024-01-19T07:26:05.049Z,-0.60
2024-01-19T07:28:31.900Z,-0.60
2024-01-19T07:30:58.868Z,-0.60
2024-01-19T07:33:32.153Z,-0.60
2024-01-19T07:36:00.685Z,-0.50
2024-01-19T07:38:29.174Z,-0.50
2024-01-19T07:40:56.652Z,-0.40
2024-01-19T07:43:23.536Z,-0.40
2024-01-19T07:45:50.379Z,-0.30
2024-01-19T07:48:17.339Z,-0.30
2024-01-19T07:50:44.446Z,-0.30
2024-01-19T07:53:11.567Z,-0.30
2024-01-19T07:55:38.552Z,-0.20
2024-01-19T07:58:05.605Z,-0.20
2024-01-19T08:00:32.819Z,-0.20
2024-01-19T08:03:00.488Z,-0.20
2024-01-19T08:05:27.428Z,-0.10
2024-01-19T08:07:54.392Z,0.00
2024-01-19T08:10:21.476Z,0.00
2024-01-19T08:12:48.811Z,0.10
2024-01-19T08:15:15.746Z,0.10
2024-01-19T08:17:42.721Z,0.20
2024-01-19T08:20:12.907Z,0.40
2024-01-19T08:22:40.100Z,0.40
2024-01-19T08:25:07.294Z,0.40
2024-01-19T08:27:34.567Z,0.30
2024-01-19T08:30:02.103Z,0.40
2024-01-19T08:32:29.195Z,0.00
2024-01-19T08:34:56.107Z,0.20
2024-01-19T08:37:23.621Z,0.20
2024-01-19T08:39:51.249Z,0.20
2024-01-19T08:42:18.079Z,0.40
2024-01-19T08:44:45.893Z,0.60
2024-01-19T08:47:12.856Z,0.70
2024-01-19T08:49:40.060Z,0.90
2024-01-19T08:52:07.005Z,1.00
2024-01-19T08:54:34.206Z,1.10
2024-01-19T08:57:03.193Z,1.40
2024-01-19T08:59:33.364Z,1.80
2024-01-19T09:02:00.471Z,3.00
2024-01-19T09:04:27.976Z,3.80
2024-01-19T09:06:58.538Z,4.40
2024-01-19T09:09:25.892Z,5.20
2024-01-19T09:11:53.128Z,6.20
2024-01-19T09:14:21.720Z,7.40
2024-01-19T09:16:49.048Z,8.20
2024-01-19T09:19:16.474Z,8.90
2024-01-19T09:21:46.433Z,8.70
2024-01-19T09:24:13.690Z,8.80
2024-01-19T09:26:41.588Z,9.90
2024-01-19T09:29:10.369Z,11.60
2024-01-19T09:31:48.018Z,12.80
2024-01-19T09:34:15.593Z,12.00
2024-01-19T09:36:42.528Z,11.40
2024-01-19T09:39:10.003Z,10.60
2024-01-19T09:41:47.187Z,9.60
2024-01-19T09:44:18.443Z,8.50
2024-01-19T09:47:02.780Z,7.50
2024-01-19T09:50:00.468Z,6.20
2024-01-19T09:52:49.019Z,4.80
2024-01-19T09:55:18.188Z,4.20
2024-01-19T09:57:50.043Z,3.90
2024-01-19T10:00:18.965Z,3.70
2024-01-19T10:02:53.654Z,3.40
2024-01-19T10:05:22.058Z,2.60
2024-01-19T10:07:50.759Z,2.80
2024-01-19T10:10:17.807Z,2.50
2024-01-19T10:12:44.887Z,2.30
2024-01-19T10:15:13.696Z,2.40
2024-01-19T10:17:42.240Z,2.50
2024-01-19T10:20:17.313Z,2.40
2024-01-19T10:22:44.666Z,2.30
2024-01-19T10:25:15.925Z,1.80
2024-01-19T10:27:51.688Z,1.90
2024-01-19T10:30:18.580Z,2.20
2024-01-19T10:32:47.599Z,2.10
2024-01-19T10:35:16.993Z,1.90
2024-01-19T10:37:44.226Z,1.60
2024-01-19T10:40:20.003Z,1.90
2024-01-19T10:42:49.508Z,2.60
2024-01-19T10:45:17.215Z,3.10
2024-01-19T10:47:47.940Z,3.00
2024-01-19T10:50:16.096Z,3.20
2024-01-19T10:52:44.652Z,3.70
2024-01-19T10:55:23.709Z,3.30
2024-01-19T10:57:56.116Z,3.90
2024-01-19T11:00:28.612Z,5.10
2024-01-19T11:05:30.757Z,5.90
2024-01-19T11:07:59.754Z,5.50
2024-01-19T11:10:29.296Z,5.20
2024-01-19T11:12:58.005Z,4.60
2024-01-19T11:15:39.882Z,4.00
2024-01-19T11:18:07.931Z,4.00
2024-01-19T11:20:36.212Z,4.50
2024-01-19T11:23:04.288Z,5.40
2024-01-19T11:25:55.958Z,7.00
2024-01-19T11:28:36.833Z,9.10
2024-01-19T11:31:23.702Z,11.00
2024-01-19T11:33:53.972Z,11.60
2024-01-19T11:36:48.221Z,10.00
2024-01-19T11:39:42.153Z,8.30
2024-01-19T11:42:34.760Z,8.20
2024-01-19T11:45:02.270Z,8.50
2024-01-19T11:47:47.891Z,9.60
2024-01-19T11:50:15.266Z,11.30
2024-01-19T11:52:44.978Z,12.20
2024-01-19T11:55:27.254Z,12.70
2024-01-19T11:57:57.781Z,12.50
2024-01-19T12:00:24.680Z,12.60
2024-01-19T12:02:56.518Z,11.20
2024-01-19T12:05:25.575Z,10.40
2024-01-19T12:08:02.391Z,9.70
2024-01-19T12:10:29.269Z,8.50
2024-01-19T12:12:56.179Z,7.60
2024-01-19T12:15:23.166Z,6.70
2024-01-19T12:17:50.152Z,5.90
2024-01-19T12:20:19.897Z,5.50
2024-01-19T12:22:52.152Z,5.00
2024-01-19T12:25:21.061Z,4.60
2024-01-19T12:27:49.764Z,4.40
2024-01-19T12:30:18.408Z,4.10
2024-01-19T12:32:46.743Z,3.80
2024-01-19T12:35:14.092Z,3.60
2024-01-19T12:37:41.280Z,3.40
2024-01-19T12:40:19.759Z,3.20
2024-01-19T12:42:46.954Z,3.20
2024-01-19T12:45:15.301Z,3.00
2024-01-19T12:47:43.740Z,3.00
2024-01-19T12:50:14.167Z,2.90
2024-01-19T12:52:47.502Z,2.90
2024-01-19T12:55:14.824Z,3.20
2024-01-19T12:57:50.534Z,3.30
2024-01-19T13:00:17.811Z,3.20
2024-01-19T13:02:45.420Z,3.10
2024-01-19T13:05:21.683Z,3.20
2024-01-19T13:07:49.590Z,2.90
2024-01-19T13:10:18.376Z,2.80
2024-01-19T13:12:45.521Z,2.60
2024-01-19T13:15:14.763Z,2.60
2024-01-19T13:17:45.771Z,2.60
2024-01-19T13:20:26.454Z,2.40
2024-01-19T13:22:53.471Z,2.40
2024-01-19T13:25:20.374Z,2.30
2024-01-19T13:27:47.319Z,2.30
2024-01-19T13:30:16.051Z,2.30
2024-01-19T13:32:43.495Z,2.30
2024-01-19T13:35:12.074Z,2.30
2024-01-19T13:37:39.258Z,2.30
2024-01-19T13:40:06.967Z,2.30
2024-01-19T13:42:34.429Z,2.30
2024-01-19T13:45:03.648Z,2.40
2024-01-19T13:47:30.537Z,2.40
2024-01-19T13:50:00.476Z,2.20
2024-01-19T13:52:29.353Z,2.20
2024-01-19T13:54:56.293Z,2.30
2024-01-19T13:57:23.426Z,2.30
2024-01-19T13:59:50.646Z,2.50
2024-01-19T14:02:18.399Z,3.10
2024-01-19T14:04:47.097Z,2.80
2024-01-19T14:07:19.717Z,2.90
2024-01-19T14:09:48.802Z,2.90
2024-01-19T14:12:16.287Z,2.90
2024-01-19T14:14:43.551Z,2.80
2024-01-19T14:17:11.150Z,2.80
2024-01-19T14:19:40.696Z,2.80
2024-01-19T14:22:08.324Z,2.70
2024-01-19T14:24:35.705Z,2.70
2024-01-19T14:27:03.291Z,2.70
2024-01-19T14:29:32.297Z,2.70
2024-01-19T14:32:01.547Z,2.60
2024-01-19T14:34:36.377Z,2.50
2024-01-19T14:37:12.293Z,2.50
2024-01-19T14:39:41.545Z,2.40
2024-01-19T14:42:09.133Z,2.30
2024-01-19T14:44:36.179Z,2.30
2024-01-19T14:47:04.942Z,2.30
2024-01-19T14:49:34.398Z,2.20
2024-01-19T14:52:02.088Z,2.10
2024-01-19T14:54:31.258Z,2.20
2024-01-19T14:57:00.557Z,2.10
2024-01-19T14:59:27.434Z,1.80
2024-01-19T15:01:56.794Z,1.80
2024-01-19T15:04:23.731Z,1.80
2024-01-19T15:06:51.391Z,1.70
2024-01-19T15:09:18.404Z,1.60
2024-01-19T15:11:45.223Z,1.30
2024-01-19T15:14:12.269Z,1.10
2024-01-19T15:16:39.237Z,1.00
2024-01-19T15:19:06.157Z,0.90
2024-01-19T15:21:32.982Z,0.90
2024-01-19T15:23:59.820Z,1.00
2024-01-19T15:26:26.659Z,0.80
2024-01-19T15:28:53.556Z,0.60
2024-01-19T15:31:22.390Z,0.50
2024-01-19T15:33:50.029Z,0.50
2024-01-19T15:36:18.124Z,0.50
2024-01-19T15:38:45.323Z,0.50
2024-01-19T15:41:12.275Z,0.40
2024-01-19T15:43:39.326Z,0.40
2024-01-19T15:46:06.301Z,0.30
2024-01-19T15:48:33.331Z,0.20
2024-01-19T15:51:00.256Z,0.10
2024-01-19T15:53:27.234Z,0.00
2024-01-19T15:55:54.318Z,-0.10
2024-01-19T15:58:21.761Z,-0.20
2024-01-19T16:00:48.659Z,-0.20
2024-01-19T16:03:15.769Z,-0.30
2024-01-19T16:05:44.006Z,-0.40
2024-01-19T16:08:10.956Z,-0.50
2024-01-19T16:10:37.921Z,-0.50
2024-01-19T16:13:06.143Z,-0.50
2024-01-19T16:15:33.037Z,-0.60
2024-01-19T16:17:59.849Z,-0.70
2024-01-19T16:20:26.708Z,-0.70
2024-01-19T16:22:53.680Z,-0.70
2024-01-19T16:25:20.572Z,-0.70
2024-01-19T16:27:47.410Z,-0.70
2024-01-19T16:30:14.517Z,-0.70
2024-01-19T16:32:45.875Z,-0.70
2024-01-19T16:35:16.428Z,-0.70
2024-01-19T16:37:48.417Z,-0.70
2024-01-19T16:40:16.103Z,-0.70
2024-01-19T16:42:43.008Z,-0.60
2024-01-19T16:45:12.261Z,-0.60
2024-01-19T16:47:40.636Z,-0.50
2024-01-19T16:50:07.985Z,-0.40
2024-01-19T16:52:34.918Z,-0.40
2024-01-19T16:55:01.735Z,-0.50
2024-01-19T16:57:28.781Z,-0.50
2024-01-19T16:59:56.187Z,-0.50
2024-01-19T17:02:23.151Z,-0.60
2024-01-19T17:04:50.142Z,-0.60
2024-01-19T17:07:17.108Z,-0.60
2024-01-19T17:09:44.002Z,-0.90
2024-01-19T17:12:11.015Z,-0.70
2024-01-19T17:14:38.511Z,-0.80
2024-01-19T17:17:05.560Z,-0.80
2024-01-19T17:19:32.466Z,-0.90
2024-01-19T17:22:00.085Z,-1.00
2024-01-19T17:24:27.598Z,-1.00
2024-01-19T17:26:54.769Z,-1.10
2024-01-19T17:29:23.113Z,-1.20
2024-01-19T17:31:51.382Z,-1.30
2024-01-19T17:34:18.501Z,-1.20
2024-01-19T17:36:45.470Z,-1.10
2024-01-19T17:39:12.531Z,-1.10
2024-01-19T17:41:41.766Z,-1.10
2024-01-19T17:44:09.914Z,-1.10
2024-01-19T17:46:37.670Z,-1.20
2024-01-19T17:49:04.710Z,-1.20
2024-01-19T17:51:31.664Z,-1.30
2024-01-19T17:53:58.850Z,-1.20
2024-01-19T17:56:26.272Z,-1.40
2024-01-19T17:58:53.150Z,-1.50
2024-01-19T18:01:19.994Z,-1.60
2024-01-19T18:03:46.884Z,-1.60
2024-01-19T18:06:15.390Z,-1.60
2024-01-19T18:08:42.404Z,-1.70
2024-01-19T18:11:09.705Z,-1.80
2024-01-19T18:13:37.436Z,-1.90
2024-01-19T18:16:05.428Z,-2.00
2024-01-19T18:18:36.333Z,-2.00
2024-01-19T18:21:04.786Z,-2.00
2024-01-19T18:23:32.927Z,-2.00
2024-01-19T18:25:59.812Z,-2.00
2024-01-19T18:28:27.521Z,-1.90
2024-01-19T18:30:55.676Z,-1.90
2024-01-19T18:33:23.064Z,-1.80
2024-01-19T18:35:50.341Z,-1.80
2024-01-19T18:38:18.107Z,-1.80
2024-01-19T18:40:44.940Z,-1.80
2024-01-19T18:43:11.821Z,-1.70
2024-01-19T18:45:38.711Z,-1.70
2024-01-19T18:48:06.208Z,-1.70
2024-01-19T18:50:33.407Z,-1.60
2024-01-19T18:53:00.845Z,-1.50
2024-01-19T18:55:28.454Z,-1.50
2024-01-19T18:57:55.353Z,-1.50
2024-01-19T19:00:22.553Z,-1.40
2024-01-19T19:02:50.361Z,-1.40
2024-01-19T19:05:17.691Z,-1.30
2024-01-19T19:07:45.995Z,-1.30
2024-01-19T19:10:13.630Z,-1.30
2024-01-19T19:12:40.700Z,-1.40
2024-01-19T19:15:09.065Z,-1.40
2024-01-19T19:17:36.561Z,-1.40
2024-01-19T19:20:04.260Z,-1.40
2024-01-19T19:22:31.322Z,-1.30
2024-01-19T19:24:58.355Z,-1.30
2024-01-19T19:27:26.221Z,-1.20
2024-01-19T19:29:52.985Z,-1.20
2024-01-19T19:32:19.957Z,-1.20
2024-01-19T19:34:47.175Z,-1.20
2024-01-19T19:37:14.321Z,-1.20
2024-01-19T19:39:41.333Z,-1.30
2024-01-19T19:42:08.190Z,-1.20
2024-01-19T19:44:35.196Z,-1.10
2024-01-19T19:47:02.182Z,-1.10
2024-01-19T19:49:29.104Z,-1.10
2024-01-19T19:51:57.587Z,-1.30
2024-01-19T19:54:24.908Z,-1.30
2024-01-19T19:56:51.785Z,-1.30
2024-01-19T19:59:18.751Z,-1.40
2024-01-19T20:01:48.965Z,-1.50
2024-01-19T20:04:16.512Z,-1.40
2024-01-19T20:06:43.347Z,-0.90
2024-01-19T20:09:10.322Z,-1.30
2024-01-19T20:11:37.867Z,-1.30
2024-01-19T20:14:05.517Z,-1.30
2024-01-19T20:16:32.987Z,-1.40
2024-01-19T20:19:00.759Z,-1.40
2024-01-19T20:21:28.389Z,-1.40
2024-01-19T20:23:56.208Z,-1.40
2024-01-19T20:26:23.718Z,-1.40
2024-01-19T20:28:52.432Z,-1.50
2024-01-19T20:31:20.948Z,-1.50
2024-01-19T20:33:47.864Z,-1.40
2024-01-19T20:36:15.151Z,-1.40
2024-01-19T20:38:42.245Z,-1.40
2024-01-19T20:41:13.575Z,-1.40
2024-01-19T20:43:40.859Z,-1.40
2024-01-19T20:46:07.664Z,-1.50
2024-01-19T20:48:34.591Z,-1.40
2024-01-19T20:51:01.422Z,-1.40
2024-01-19T20:53:28.790Z,-1.40
2024-01-19T20:55:55.677Z,-1.40
2024-01-19T20:58:22.569Z,-1.50
2024-01-19T21:00:51.063Z,-1.40
2024-01-19T21:03:18.727Z,-1.50
2024-01-19T21:05:45.795Z,-1.50
2024-01-19T21:08:13.390Z,-1.50
2024-01-19T21:10:40.828Z,-1.70
2024-01-19T21:13:07.917Z,-1.60
2024-01-19T21:15:34.996Z,-1.70
2024-01-19T21:18:03.179Z,-1.70
2024-01-19T21:20:30.143Z,-1.70
2024-01-19T21:22:57.097Z,-1.90
2024-01-19T21:25:24.222Z,-1.80
2024-01-19T21:27:51.042Z,-1.60
2024-01-19T21:30:18.078Z,-1.80
2024-01-19T21:32:45.732Z,-1.90
2024-01-19T21:35:12.745Z,-1.90
2024-01-19T21:37:39.830Z,-1.90
2024-01-19T21:40:09.347Z,-1.80
2024-01-19T21:42:44.883Z,-1.60
2024-01-19T21:45:16.128Z,-1.70
2024-01-19T21:47:44.129Z,-1.70
2024-01-19T21:50:12.925Z,-1.70
2024-01-19T21:52:40.333Z,-1.70
2024-01-19T21:55:08.652Z,-1.70
2024-01-19T21:57:35.901Z,-1.80
2024-01-19T22:00:04.319Z,-1.80
2024-01-19T22:02:31.570Z,-1.90
2024-01-19T22:04:59.031Z,-1.80
2024-01-19T22:07:26.025Z,-1.90
2024-01-19T22:09:52.949Z,-2.00
2024-01-19T22:12:19.756Z,-2.00
2024-01-19T22:14:46.978Z,-2.00
2024-01-19T22:17:13.888Z,-2.00
2024-01-19T22:19:42.436Z,-2.00
2024-01-19T22:22:09.471Z,-2.00
2024-01-19T22:24:36.500Z,-1.90
2024-01-19T22:27:03.398Z,-2.00
2024-01-19T22:29:31.155Z,-1.90
2024-01-19T22:31:58.071Z,-1.80
2024-01-19T22:34:25.305Z,-1.90
2024-01-19T22:36:52.452Z,-1.90
2024-01-19T22:39:19.677Z,-1.90
2024-01-19T22:41:47.326Z,-1.90
2024-01-19T22:44:15.423Z,-2.00
2024-01-19T22:46:42.818Z,-2.10
2024-01-19T22:49:11.931Z,-2.00
2024-01-19T22:51:39.348Z,-1.90
2024-01-19T22:54:06.458Z,-1.90
2024-01-19T22:56:33.645Z,-1.90
2024-01-19T22:59:01.951Z,-1.90
2024-01-19T23:01:28.860Z,-2.00
2024-01-19T23:03:55.859Z,-2.00
2024-01-19T23:06:23.580Z,-2.00
2024-01-19T23:08:50.586Z,-1.90
2024-01-19T23:11:17.446Z,-1.90
2024-01-19T23:13:44.704Z,-1.90
2024-01-19T23:16:12.005Z,-1.90
2024-01-19T23:18:39.057Z,-1.90
2024-01-19T23:21:06.484Z,-2.00
2024-01-19T23:23:33.908Z,-2.10
2024-01-19T23:26:01.521Z,-2.10
2024-01-19T23:28:28.540Z,-2.20
2024-01-19T23:30:55.367Z,-2.20
2024-01-19T23:33:23.040Z,-2.20
2024-01-19T23:35:50.063Z,-2.20
2024-01-19T23:38:17.013Z,-2.20
2024-01-19T23:40:43.878Z,-2.10
2024-01-19T23:43:11.205Z,-2.20
2024-01-19T23:45:38.072Z,-2.10
2024-01-19T23:48:07.454Z,-2.00
2024-01-19T23:50:35.711Z,-2.20
2024-01-19T23:53:03.107Z,-2.20
2024-01-19T23:55:29.933Z,-2.00
2024-01-19T23:57:56.737Z,-2.00
